createdAt,value
2023-03-16T07:11:15.098Z,5.95
2023-03-16T07:12:16.473Z,5.38
2023-03-16T07:13:18.330Z,5.75
2023-03-16T07:14:19.979Z,5.82
2023-03-16T07:15:21.857Z,5.25
2023-03-16T07:16:23.594Z,5.00
2023-03-16T07:17:24.993Z,5.40
2023-03-16T07:18:26.476Z,6.15
2023-03-16T07:19:28.871Z,5.40
2023-03-16T07:20:32.857Z,5.50
2023-03-16T07:21:39.234Z,4.93
2023-03-16T07:22:41.733Z,6.00
2023-03-16T07:23:43.174Z,5.35
2023-03-16T07:24:45.173Z,5.63
2023-03-16T07:25:46.535Z,5.15
2023-03-16T07:26:48.011Z,5.10
2023-03-16T07:27:49.386Z,5.32
2023-03-16T07:28:50.764Z,5.13
2023-03-16T07:29:52.332Z,6.20
2023-03-16T07:31:03.345Z,5.30
2023-03-16T07:32:05.891Z,4.03
2023-03-16T07:33:07.394Z,5.35
2023-03-16T07:34:08.911Z,5.03
2023-03-16T07:35:11.569Z,5.95
2023-03-16T07:36:13.189Z,4.82
2023-03-16T07:37:17.139Z,5.65
2023-03-16T07:38:18.637Z,5.43
2023-03-16T07:39:20.113Z,4.95
2023-03-16T07:40:21.563Z,5.00
2023-03-16T07:41:23.196Z,4.93
2023-03-16T07:42:24.609Z,4.90
2023-03-16T07:43:26.028Z,4.03
2023-03-16T07:44:28.094Z,5.18
2023-03-16T07:45:29.915Z,4.25
2023-03-16T07:46:32.637Z,5.00
2023-03-16T07:47:34.174Z,4.78
2023-03-16T07:48:35.575Z,5.45
2023-03-16T07:49:37.083Z,5.20
2023-03-16T07:50:38.521Z,5.15
2023-03-16T07:51:40.948Z,4.72
2023-03-16T07:52:42.866Z,4.22
2023-03-16T07:53:44.286Z,4.88
2023-03-16T07:54:45.711Z,4.75
2023-03-16T07:55:47.122Z,4.45
2023-03-16T07:56:49.856Z,4.10
2023-03-16T07:57:51.509Z,4.90
2023-03-16T07:58:52.867Z,4.90
2023-03-16T07:59:54.203Z,5.50
2023-03-16T08:01:00.824Z,5.63
2023-03-16T08:02:02.421Z,5.18
2023-03-16T08:03:03.873Z,4.57
2023-03-16T08:04:05.458Z,4.28
2023-03-16T08:05:10.031Z,4.45
2023-03-16T08:06:12.073Z,5.28
2023-03-16T08:07:14.860Z,4.90
2023-03-16T08:08:16.282Z,4.30
2023-03-16T08:09:18.392Z,4.55
2023-03-16T08:10:19.903Z,4.20
2023-03-16T08:11:23.794Z,4.10
2023-03-16T08:12:25.493Z,5.05
2023-03-16T08:13:27.307Z,4.85
2023-03-16T08:14:28.956Z,4.50
2023-03-16T08:15:33.781Z,4.60
2023-03-16T08:16:35.819Z,4.22
2023-03-16T08:17:37.850Z,4.30
2023-03-16T08:18:39.231Z,4.25
2023-03-16T08:19:40.970Z,4.78
2023-03-16T08:20:42.489Z,4.35
2023-03-16T08:22:00.348Z,5.00
2023-03-16T08:23:02.061Z,4.00
2023-03-16T08:24:03.632Z,4.22
2023-03-16T08:25:07.313Z,4.13
2023-03-16T08:26:08.867Z,4.18
2023-03-16T08:27:11.001Z,4.47
2023-03-16T08:28:12.657Z,4.75
2023-03-16T08:29:14.414Z,4.38
2023-03-16T08:30:17.079Z,3.85
2023-03-16T08:31:20.223Z,4.38
2023-03-16T08:32:21.627Z,4.22
2023-03-16T08:33:23.531Z,5.03
2023-03-16T08:34:25.842Z,4.05
2023-03-16T08:35:29.011Z,4.82
2023-03-16T08:36:31.086Z,4.18
2023-03-16T08:37:32.501Z,4.45
2023-03-16T08:38:34.199Z,4.80
2023-03-16T08:39:35.743Z,4.82
2023-03-16T08:40:37.163Z,4.40
2023-03-16T08:41:40.589Z,4.88
2023-03-16T08:42:43.100Z,4.43
2023-03-16T08:43:44.668Z,4.30
2023-03-16T08:44:47.674Z,4.40
2023-03-16T08:45:49.205Z,5.50
2023-03-16T08:46:51.768Z,4.10
2023-03-16T08:47:53.797Z,4.90
2023-03-16T08:48:58.042Z,4.95
2023-03-16T08:50:00.216Z,4.95
2023-03-16T08:51:03.459Z,4.10
2023-03-16T08:52:05.628Z,4.45
2023-03-16T08:53:07.795Z,3.80
2023-03-16T08:54:09.146Z,4.47
2023-03-16T08:55:11.157Z,4.43
2023-03-16T08:56:14.696Z,4.40
2023-03-16T08:57:16.198Z,4.95
2023-03-16T08:58:17.749Z,4.45
2023-03-16T08:59:29.201Z,4.45
2023-03-16T09:00:31.626Z,4.68
2023-03-16T09:01:33.938Z,4.72
2023-03-16T09:02:38.468Z,3.85
2023-03-16T09:03:45.957Z,5.20
2023-03-16T09:04:47.515Z,3.95
2023-03-16T09:05:49.397Z,4.32
2023-03-16T09:07:05.892Z,5.30
2023-03-16T09:08:09.686Z,4.43
2023-03-16T09:09:11.566Z,4.78
2023-03-16T09:10:16.228Z,4.57
2023-03-16T09:11:19.067Z,4.07
2023-03-16T09:12:22.213Z,3.63
2023-03-16T09:13:24.477Z,4.28
2023-03-16T09:14:25.861Z,4.15
2023-03-16T09:15:27.369Z,4.30
2023-03-16T09:16:30.921Z,3.88
2023-03-16T09:17:33.300Z,4.13
2023-03-16T09:18:36.205Z,4.78
2023-03-16T09:19:56.269Z,4.50
2023-03-16T09:21:04.458Z,4.07
2023-03-16T09:22:06.844Z,4.03
2023-03-16T09:23:08.298Z,4.18
2023-03-16T09:24:10.070Z,3.97
2023-03-16T09:25:11.520Z,4.15
2023-03-16T09:26:13.532Z,4.63
2023-03-16T09:27:15.483Z,4.15
2023-03-16T09:28:18.072Z,3.60
2023-03-16T09:29:21.720Z,3.60
2023-03-16T09:30:23.199Z,3.20
2023-03-16T09:31:24.666Z,4.10
2023-03-16T09:32:28.139Z,3.58
2023-03-16T09:33:31.830Z,3.47
2023-03-16T09:34:33.461Z,3.80
2023-03-16T09:35:35.971Z,3.50
2023-03-16T09:36:37.929Z,3.83
2023-03-16T09:37:45.659Z,3.80
2023-03-16T09:38:56.810Z,4.40
2023-03-16T09:40:06.524Z,3.55
2023-03-16T09:41:30.075Z,4.05
2023-03-16T09:42:38.385Z,4.15
2023-03-16T09:44:00.205Z,3.75
2023-03-16T09:45:32.623Z,4.15
2023-03-16T09:46:46.096Z,3.65
2023-03-16T09:47:50.613Z,3.10
2023-03-16T09:48:53.672Z,4.78
2023-03-16T09:50:03.040Z,3.47
2023-03-16T09:51:08.162Z,3.15
2023-03-16T09:52:20.310Z,3.55
2023-03-16T09:53:29.624Z,3.40
2023-03-16T09:54:49.473Z,2.92
2023-03-16T09:56:03.285Z,3.25
2023-03-16T09:57:16.504Z,3.88
2023-03-16T09:58:21.119Z,2.97
2023-03-16T09:59:23.319Z,3.85
2023-03-16T10:00:55.804Z,3.45
2023-03-16T10:02:06.066Z,3.00
2023-03-16T10:03:25.202Z,3.40
2023-03-16T10:04:37.608Z,3.17
2023-03-16T10:05:39.545Z,3.58
2023-03-16T10:06:52.518Z,3.40
2023-03-16T10:08:08.995Z,3.15
2023-03-16T10:09:39.605Z,3.30
2023-03-16T10:11:23.986Z,3.45
2023-03-16T10:12:37.480Z,2.70
2023-03-16T10:13:44.429Z,2.88
2023-03-16T10:15:09.184Z,2.60
2023-03-16T10:16:25.739Z,2.60
2023-03-16T10:17:36.480Z,2.65
2023-03-16T10:18:50.288Z,2.70
2023-03-16T10:19:59.262Z,2.47
2023-03-16T10:21:02.860Z,2.42
2023-03-16T10:22:17.758Z,2.20
2023-03-16T10:23:23.545Z,2.72
2023-03-16T10:24:43.694Z,3.55
2023-03-16T10:25:50.146Z,2.67
2023-03-16T10:27:00.275Z,2.30
2023-03-16T10:28:02.070Z,2.70
2023-03-16T10:29:04.792Z,2.58
2023-03-16T10:30:19.492Z,3.13
2023-03-16T10:31:23.712Z,2.25
2023-03-16T10:32:29.498Z,2.60
2023-03-16T10:33:36.688Z,2.55
2023-03-16T10:34:38.228Z,2.00
2023-03-16T10:35:51.187Z,2.35
2023-03-16T10:36:54.521Z,2.20
2023-03-16T10:37:57.162Z,2.55
2023-03-16T10:39:02.842Z,2.17
2023-03-16T10:40:12.714Z,2.00
2023-03-16T10:41:20.472Z,2.70
2023-03-16T10:42:22.436Z,2.35
2023-03-16T10:43:25.073Z,2.00
2023-03-16T10:44:28.610Z,2.05
2023-03-16T10:45:32.228Z,2.20
2023-03-16T10:46:41.261Z,1.70
2023-03-16T10:47:42.729Z,2.38
2023-03-16T10:48:53.172Z,2.08
2023-03-16T10:49:55.648Z,1.70
2023-03-16T10:50:57.710Z,2.25
2023-03-16T10:52:00.284Z,2.10
2023-03-16T10:53:02.786Z,2.17
2023-03-16T10:54:19.842Z,2.17
2023-03-16T10:55:24.981Z,1.98
2023-03-16T10:56:27.340Z,1.67
2023-03-16T10:57:36.186Z,2.20
2023-03-16T10:58:42.432Z,2.03
2023-03-16T10:59:49.603Z,1.77
2023-03-16T11:00:51.874Z,1.90
2023-03-16T11:01:54.460Z,1.55
2023-03-16T11:02:58.240Z,1.90
2023-03-16T11:04:00.774Z,1.60
2023-03-16T11:05:33.478Z,1.55
2023-03-16T11:06:34.893Z,1.85
2023-03-16T11:07:37.088Z,1.95
2023-03-16T11:08:39.873Z,1.70
2023-03-16T11:09:41.324Z,2.00
2023-03-16T11:10:55.599Z,1.65
2023-03-16T11:11:57.584Z,1.92
2023-03-16T11:13:20.299Z,2.13
2023-03-16T11:14:26.018Z,1.98
2023-03-16T11:15:36.854Z,1.45
2023-03-16T11:16:43.962Z,2.35
2023-03-16T11:17:51.311Z,1.67
2023-03-16T11:18:58.806Z,1.40
2023-03-16T11:20:12.290Z,2.50
2023-03-16T11:21:25.801Z,1.95
2023-03-16T11:22:30.123Z,1.85
2023-03-16T11:23:38.906Z,1.85
2023-03-16T11:24:53.056Z,2.08
2023-03-16T11:25:58.727Z,1.80
2023-03-16T11:27:04.559Z,2.25
2023-03-16T11:28:06.593Z,2.25
2023-03-16T11:29:18.747Z,1.88
2023-03-16T11:30:34.101Z,1.73
2023-03-16T11:31:55.260Z,2.05
2023-03-16T11:33:00.511Z,3.45
2023-03-16T11:34:02.782Z,1.80
2023-03-16T11:35:46.597Z,1.77
2023-03-16T11:37:04.520Z,1.27
2023-03-16T11:38:19.016Z,1.30
2023-03-16T11:39:27.377Z,1.55
2023-03-16T11:40:41.218Z,1.40
2023-03-16T11:42:10.080Z,1.83
2023-03-16T11:43:49.419Z,1.70
2023-03-16T11:45:12.690Z,1.52
2023-03-16T11:46:40.317Z,1.73
2023-03-16T11:48:08.193Z,2.10
2023-03-16T11:49:38.291Z,1.90
2023-03-16T11:51:01.906Z,1.35
2023-03-16T11:52:36.917Z,1.80
2023-03-16T11:53:55.794Z,2.10
2023-03-16T11:55:28.876Z,2.25
2023-03-16T11:56:33.768Z,1.60
2023-03-16T11:57:38.069Z,1.55
2023-03-16T11:59:11.413Z,1.85
2023-03-16T12:00:52.727Z,1.42
2023-03-16T12:02:09.925Z,1.70
2023-03-16T12:03:41.076Z,1.60
2023-03-16T12:04:55.080Z,1.50
2023-03-16T12:05:59.777Z,1.30
2023-03-16T12:07:18.222Z,1.50
2023-03-16T12:08:35.112Z,1.90
2023-03-16T12:09:58.946Z,1.33
2023-03-16T12:11:07.677Z,1.75
2023-03-16T12:12:24.819Z,1.48
2023-03-16T12:13:38.884Z,1.70
2023-03-16T12:14:47.139Z,1.38
2023-03-16T12:15:59.700Z,1.50
2023-03-16T12:17:09.497Z,2.17
2023-03-16T12:18:30.331Z,1.75
2023-03-16T12:20:24.954Z,1.70
2023-03-16T12:21:40.631Z,1.00
2023-03-16T12:22:46.028Z,1.60
2023-03-16T12:23:56.958Z,1.48
2023-03-16T12:24:58.502Z,1.65
2023-03-16T12:26:00.878Z,1.65
2023-03-16T12:27:02.561Z,1.20
2023-03-16T12:28:15.968Z,1.50
2023-03-16T12:29:33.571Z,1.65
2023-03-16T12:30:44.301Z,1.50
2023-03-16T12:31:55.835Z,1.98
2023-03-16T12:33:10.178Z,2.10
2023-03-16T12:34:36.764Z,1.60
2023-03-16T12:36:09.394Z,1.30
2023-03-16T12:37:29.117Z,1.45
2023-03-16T12:38:47.914Z,2.00
2023-03-16T12:39:57.105Z,1.75
2023-03-16T12:41:11.336Z,1.83
2023-03-16T12:42:34.579Z,1.80
2023-03-16T12:43:42.701Z,2.15
2023-03-16T12:45:03.680Z,2.90
2023-03-16T12:46:11.980Z,2.47
2023-03-16T12:47:24.213Z,1.85
2023-03-16T12:48:34.006Z,1.70
2023-03-16T12:49:37.031Z,1.70
2023-03-16T12:50:57.667Z,1.80
2023-03-16T12:52:05.961Z,1.88
2023-03-16T12:53:07.518Z,1.80
2023-03-16T12:54:26.300Z,1.30
2023-03-16T12:55:33.501Z,1.42
2023-03-16T12:56:43.393Z,1.70
2023-03-16T12:57:47.971Z,2.60
2023-03-16T12:58:50.661Z,1.63
2023-03-16T12:59:58.303Z,1.95
2023-03-16T13:01:00.817Z,1.70
2023-03-16T13:02:06.664Z,1.40
2023-03-16T13:03:19.880Z,1.73
2023-03-16T13:04:32.556Z,1.67
2023-03-16T13:05:36.368Z,1.80
2023-03-16T13:06:44.409Z,1.45
2023-03-16T13:07:51.208Z,1.92
2023-03-16T13:08:59.765Z,1.55
2023-03-16T13:10:13.838Z,1.35
2023-03-16T13:11:16.364Z,1.80
2023-03-16T13:12:31.471Z,1.58
2023-03-16T13:13:34.042Z,1.70
2023-03-16T13:14:44.133Z,1.77
2023-03-16T13:15:49.635Z,1.85
2023-03-16T13:16:53.706Z,1.45
2023-03-16T13:18:10.121Z,1.45
2023-03-16T13:19:38.466Z,1.63
2023-03-16T13:20:59.582Z,1.30
2023-03-16T13:22:19.309Z,1.15
2023-03-16T13:23:41.483Z,1.80
2023-03-16T13:24:51.963Z,1.40
2023-03-16T13:26:12.291Z,1.10
2023-03-16T13:27:21.337Z,1.58
2023-03-16T13:28:32.611Z,1.63
2023-03-16T13:29:34.140Z,1.48
2023-03-16T13:30:36.872Z,1.92
2023-03-16T13:31:41.932Z,1.60
2023-03-16T13:32:43.691Z,1.60
2023-03-16T13:33:48.089Z,1.65
2023-03-16T13:34:53.434Z,1.35
2023-03-16T13:35:57.399Z,1.23
2023-03-16T13:37:01.362Z,1.30
2023-03-16T13:38:07.196Z,1.40
2023-03-16T13:39:18.664Z,1.48
2023-03-16T13:40:28.064Z,1.45
2023-03-16T13:41:30.574Z,1.92
2023-03-16T13:42:33.559Z,1.48
2023-03-16T13:43:39.472Z,1.70
2023-03-16T13:44:41.535Z,1.50
2023-03-16T13:45:43.638Z,1.50
2023-03-16T13:46:49.105Z,1.35
2023-03-16T13:47:51.635Z,1.60
2023-03-16T13:48:52.969Z,1.55
2023-03-16T13:49:58.149Z,1.90
2023-03-16T13:50:59.610Z,1.95
2023-03-16T13:52:03.774Z,1.65
2023-03-16T13:53:14.696Z,1.67
2023-03-16T13:54:23.688Z,1.48
2023-03-16T13:55:36.948Z,1.70
2023-03-16T13:56:40.106Z,1.80
2023-03-16T13:57:44.004Z,1.98
2023-03-16T13:58:49.558Z,1.63
2023-03-16T13:59:53.487Z,1.27
2023-03-16T14:01:00.753Z,1.45
2023-03-16T14:02:02.803Z,2.03
2023-03-16T14:03:17.726Z,2.05
2023-03-16T14:04:23.842Z,1.35
2023-03-16T14:05:27.342Z,1.65
2023-03-16T14:06:31.420Z,1.23
2023-03-16T14:07:37.529Z,1.52
2023-03-16T14:08:41.882Z,1.45
2023-03-16T14:09:45.158Z,1.52
2023-03-16T14:10:47.375Z,1.40
2023-03-16T14:11:48.943Z,1.45
2023-03-16T14:12:58.664Z,1.33
2023-03-16T14:14:01.331Z,1.40
2023-03-16T14:15:05.148Z,1.45
2023-03-16T14:16:18.635Z,1.70
2023-03-16T14:17:22.024Z,1.38
2023-03-16T14:18:32.080Z,1.70
2023-03-16T14:19:58.605Z,1.55
2023-03-16T14:21:00.207Z,2.13
2023-03-16T14:22:04.184Z,1.30
2023-03-16T14:23:05.795Z,1.98
2023-03-16T14:24:20.048Z,1.70
2023-03-16T14:25:25.485Z,1.60
2023-03-16T14:26:27.190Z,2.22
2023-03-16T14:27:40.916Z,1.55
2023-03-16T14:29:06.238Z,1.25
2023-03-16T14:30:13.690Z,1.42
2023-03-16T14:31:20.260Z,1.60
2023-03-16T14:32:28.239Z,1.42
2023-03-16T14:33:33.627Z,1.95
2023-03-16T14:34:36.221Z,1.88
2023-03-16T14:35:44.683Z,1.40
2023-03-16T14:36:46.232Z,1.33
2023-03-16T14:37:51.838Z,1.33
2023-03-16T14:38:54.431Z,1.35
2023-03-16T14:40:02.509Z,1.58
2023-03-16T14:41:17.120Z,1.60
2023-03-16T14:42:30.846Z,1.50
2023-03-16T14:43:39.024Z,1.20
2023-03-16T14:44:40.734Z,1.48
2023-03-16T14:45:42.595Z,1.40
2023-03-16T14:46:44.124Z,1.35
2023-03-16T14:47:47.307Z,1.27
2023-03-16T14:48:48.879Z,1.50
2023-03-16T14:49:50.889Z,1.38
2023-03-16T14:50:58.269Z,1.52
2023-03-16T14:52:08.189Z,1.50
2023-03-16T14:53:10.132Z,1.80
2023-03-16T14:54:17.186Z,1.20
2023-03-16T14:55:20.746Z,1.13
2023-03-16T14:56:23.207Z,1.38
2023-03-16T14:57:26.039Z,1.55
2023-03-16T14:58:27.389Z,1.40
2023-03-16T14:59:28.798Z,1.60
2023-03-16T15:00:33.008Z,1.48
2023-03-16T15:01:37.886Z,1.60
2023-03-16T15:02:41.151Z,1.40
2023-03-16T15:03:43.534Z,2.20
2023-03-16T15:04:46.447Z,1.30
2023-03-16T15:05:50.571Z,1.20
2023-03-16T15:06:52.074Z,1.40
2023-03-16T15:07:55.492Z,1.65
2023-03-16T15:08:57.353Z,1.50
2023-03-16T15:10:24.268Z,1.92
2023-03-16T15:11:26.198Z,1.20
2023-03-16T15:12:27.622Z,2.00
2023-03-16T15:13:42.338Z,1.45
2023-03-16T15:15:02.704Z,1.75
2023-03-16T15:16:05.798Z,1.27
2023-03-16T15:17:08.186Z,2.28
2023-03-16T15:18:09.984Z,1.60
2023-03-16T15:19:11.818Z,1.60
2023-03-16T15:20:15.611Z,1.45
2023-03-16T15:21:20.709Z,1.58
2023-03-16T15:22:29.445Z,1.60
2023-03-16T15:23:31.081Z,2.15
2023-03-16T15:24:33.338Z,1.40
2023-03-16T15:25:46.688Z,1.80
2023-03-16T15:26:48.039Z,1.80
2023-03-16T15:27:50.437Z,1.35
2023-03-16T15:28:52.005Z,1.98
2023-03-16T15:29:53.742Z,1.50
2023-03-16T15:31:01.065Z,1.92
2023-03-16T15:32:02.736Z,1.95
2023-03-16T15:33:04.544Z,1.52
2023-03-16T15:34:06.357Z,1.63
2023-03-16T15:35:09.157Z,1.50
2023-03-16T15:36:21.029Z,2.20
2023-03-16T15:37:24.345Z,2.60
2023-03-16T15:38:34.645Z,1.50
2023-03-16T15:39:36.000Z,1.75
2023-03-16T15:40:39.442Z,1.77
2023-03-16T15:41:47.875Z,1.83
2023-03-16T15:42:50.027Z,2.33
2023-03-16T15:43:52.619Z,1.52
2023-03-16T15:44:54.215Z,1.23
2023-03-16T15:45:57.365Z,1.75
2023-03-16T15:47:00.499Z,1.73
2023-03-16T15:48:01.888Z,1.60
2023-03-16T15:49:03.440Z,1.63
2023-03-16T15:50:05.897Z,1.30
2023-03-16T15:51:17.208Z,1.52
2023-03-16T15:52:32.467Z,1.33
2023-03-16T15:53:38.807Z,1.35
2023-03-16T15:54:40.366Z,1.50
2023-03-16T15:55:44.624Z,1.35
2023-03-16T15:56:54.263Z,1.48
2023-03-16T15:57:58.939Z,1.30
2023-03-16T15:59:06.077Z,1.40
2023-03-16T16:00:22.521Z,1.10
2023-03-16T16:01:25.915Z,1.40
2023-03-16T16:02:30.030Z,1.13
2023-03-16T16:03:31.780Z,1.30
2023-03-16T16:04:36.046Z,1.40
2023-03-16T16:05:38.414Z,1.60
2023-03-16T16:06:39.824Z,1.70
2023-03-16T16:07:41.413Z,1.38
2023-03-16T16:08:43.307Z,1.60
2023-03-16T16:09:44.930Z,1.10
2023-03-16T16:10:48.437Z,1.27
2023-03-16T16:11:50.417Z,1.17
2023-03-16T16:12:54.588Z,1.63
2023-03-16T16:13:58.027Z,1.20
2023-03-16T16:14:59.513Z,1.30
2023-03-16T16:16:01.305Z,1.10
2023-03-16T16:17:02.794Z,1.40
2023-03-16T16:18:24.689Z,1.20
2023-03-16T16:19:26.984Z,1.10
2023-03-16T16:20:31.630Z,1.52
2023-03-16T16:21:33.616Z,1.42
2023-03-16T16:22:36.896Z,1.48
2023-03-16T16:23:38.465Z,1.20
2023-03-16T16:24:39.860Z,1.40
2023-03-16T16:25:42.006Z,1.30
2023-03-16T16:26:50.984Z,1.27
2023-03-16T16:27:55.693Z,1.23
2023-03-16T16:28:58.934Z,1.40
2023-03-16T16:30:00.710Z,1.15
2023-03-16T16:31:02.770Z,1.63
2023-03-16T16:32:05.110Z,1.23
2023-03-16T16:33:27.238Z,1.25
2023-03-16T17:05:18.492Z,1.30
2023-03-16T17:06:20.501Z,1.08
2023-03-16T17:07:21.879Z,1.17
2023-03-16T17:08:24.694Z,1.33
2023-03-16T17:09:27.317Z,1.27
2023-03-16T17:10:28.918Z,1.00
2023-03-16T17:11:31.495Z,1.58
2023-03-16T17:12:32.894Z,1.10
